sensor_id;sensor_type;location;lat;lon;timestamp;temperature;humidity
38458;DHT22;24239;48.058;10.486;2023-07-13T00:02:12;17.60;99.90
38458;DHT22;24239;48.058;10.486;2023-07-13T00:04:42;17.60;99.90
38458;DHT22;24239;48.058;10.486;2023-07-13T00:07:10;17.60;99.90
38458;DHT22;24239;48.058;10.486;2023-07-13T00:09:42;17.60;99.90
38458;DHT22;24239;48.058;10.486;2023-07-13T00:12:33;17.50;99.90
38458;DHT22;24239;48.058;10.486;2023-07-13T00:15:03;17.50;99.90
38458;DHT22;24239;48.058;10.486;2023-07-13T00:17:29;17.50;99.90
38458;DHT22;24239;48.058;10.486;2023-07-13T00:19:56;17.50;99.90
38458;DHT22;24239;48.058;10.486;2023-07-13T00:22:22;17.40;99.90
38458;DHT22;24239;48.058;10.486;2023-07-13T00:24:52;17.40;99.90
38458;DHT22;24239;48.058;10.486;2023-07-13T00:27:25;17.40;99.90
38458;DHT22;24239;48.058;10.486;2023-07-13T00:29:58;17.50;99.90
38458;DHT22;24239;48.058;10.486;2023-07-13T00:32:25;17.40;99.90
38458;DHT22;24239;48.058;10.486;2023-07-13T00:34:52;17.40;99.90
38458;DHT22;24239;48.058;10.486;2023-07-13T00:37:18;17.40;99.90
38458;DHT22;24239;48.058;10.486;2023-07-13T00:39:43;17.40;99.90
38458;DHT22;24239;48.058;10.486;2023-07-13T00:42:09;17.40;99.90
38458;DHT22;24239;48.058;10.486;2023-07-13T00:44:36;17.30;99.90
38458;DHT22;24239;48.058;10.486;2023-07-13T00:47:02;17.30;99.90
38458;DHT22;24239;48.058;10.486;2023-07-13T00:49:30;17.30;99.90
38458;DHT22;24239;48.058;10.486;2023-07-13T00:52:08;17.30;99.90
38458;DHT22;24239;48.058;10.486;2023-07-13T00:54:43;17.30;99.90
38458;DHT22;24239;48.058;10.486;2023-07-13T00:57:14;17.30;99.90
38458;DHT22;24239;48.058;10.486;2023-07-13T00:59:47;17.20;99.90
38458;DHT22;24239;48.058;10.486;2023-07-13T01:02:17;17.20;99.90
38458;DHT22;24239;48.058;10.486;2023-07-13T01:04:46;17.20;99.90
38458;DHT22;24239;48.058;10.486;2023-07-13T01:07:16;17.20;99.90
38458;DHT22;24239;48.058;10.486;2023-07-13T01:09:43;17.20;99.90
38458;DHT22;24239;48.058;10.486;2023-07-13T01:12:13;17.20;99.90
38458;DHT22;24239;48.058;10.486;2023-07-13T01:14:44;17.20;99.90
38458;DHT22;24239;48.058;10.486;2023-07-13T01:17:13;17.20;99.90
38458;DHT22;24239;48.058;10.486;2023-07-13T01:19:45;17.20;99.90
38458;DHT22;24239;48.058;10.486;2023-07-13T01:22:13;17.20;99.90
38458;DHT22;24239;48.058;10.486;2023-07-13T01:24:41;17.20;99.90
38458;DHT22;24239;48.058;10.486;2023-07-13T01:27:09;17.10;99.90
38458;DHT22;24239;48.058;10.486;2023-07-13T01:29:38;17.10;99.90
38458;DHT22;24239;48.058;10.486;2023-07-13T01:32:12;17.00;99.90
38458;DHT22;24239;48.058;10.486;2023-07-13T01:34:41;17.00;99.90
38458;DHT22;24239;48.058;10.486;2023-07-13T01:37:12;17.00;99.90
38458;DHT22;24239;48.058;10.486;2023-07-13T01:39:42;17.00;99.90
38458;DHT22;24239;48.058;10.486;2023-07-13T01:42:11;16.90;99.90
38458;DHT22;24239;48.058;10.486;2023-07-13T01:44:39;16.90;99.90
38458;DHT22;24239;48.058;10.486;2023-07-13T01:47:07;16.90;99.90
38458;DHT22;24239;48.058;10.486;2023-07-13T01:49:33;16.80;99.90
38458;DHT22;24239;48.058;10.486;2023-07-13T01:51:59;16.70;99.90
38458;DHT22;24239;48.058;10.486;2023-07-13T01:54:28;16.70;99.90
38458;DHT22;24239;48.058;10.486;2023-07-13T01:56:57;16.70;99.90
38458;DHT22;24239;48.058;10.486;2023-07-13T01:59:26;16.70;99.90
38458;DHT22;24239;48.058;10.486;2023-07-13T02:01:52;16.70;99.90
38458;DHT22;24239;48.058;10.486;2023-07-13T02:04:18;16.70;99.90
38458;DHT22;24239;48.058;10.486;2023-07-13T02:06:43;16.70;99.90
38458;DHT22;24239;48.058;10.486;2023-07-13T02:09:10;16.60;99.90
38458;DHT22;24239;48.058;10.486;2023-07-13T02:11:36;16.60;99.90
38458;DHT22;24239;48.058;10.486;2023-07-13T02:14:04;16.60;99.90
38458;DHT22;24239;48.058;10.486;2023-07-13T02:16:33;16.50;99.90
38458;DHT22;24239;48.058;10.486;2023-07-13T02:19:03;16.60;99.90
38458;DHT22;24239;48.058;10.486;2023-07-13T02:21:31;16.50;99.90
38458;DHT22;24239;48.058;10.486;2023-07-13T02:24:01;16.50;99.90
38458;DHT22;24239;48.058;10.486;2023-07-13T02:26:29;16.50;99.90
38458;DHT22;24239;48.058;10.486;2023-07-13T02:28:59;16.50;99.90
38458;DHT22;24239;48.058;10.486;2023-07-13T02:31:27;16.50;99.90
38458;DHT22;24239;48.058;10.486;2023-07-13T02:33:56;16.50;99.90
38458;DHT22;24239;48.058;10.486;2023-07-13T02:36:24;16.50;99.90
38458;DHT22;24239;48.058;10.486;2023-07-13T02:38:52;16.60;99.90
38458;DHT22;24239;48.058;10.486;2023-07-13T02:41:22;16.60;99.90
38458;DHT22;24239;48.058;10.486;2023-07-13T02:43:48;16.60;99.90
38458;DHT22;24239;48.058;10.486;2023-07-13T02:46:17;16.60;99.90
38458;DHT22;24239;48.058;10.486;2023-07-13T02:48:46;16.60;99.90
38458;DHT22;24239;48.058;10.486;2023-07-13T02:51:12;16.50;99.90
38458;DHT22;24239;48.058;10.486;2023-07-13T02:53:38;16.60;99.90
38458;DHT22;24239;48.058;10.486;2023-07-13T02:56:04;16.60;99.90
38458;DHT22;24239;48.058;10.486;2023-07-13T02:58:30;16.60;99.90
38458;DHT22;24239;48.058;10.486;2023-07-13T03:01:07;16.60;99.90
38458;DHT22;24239;48.058;10.486;2023-07-13T03:03:37;16.60;99.90
38458;DHT22;24239;48.058;10.486;2023-07-13T03:06:07;16.60;99.90
38458;DHT22;24239;48.058;10.486;2023-07-13T03:08:36;16.60;99.90
38458;DHT22;24239;48.058;10.486;2023-07-13T03:11:08;16.60;99.90
38458;DHT22;24239;48.058;10.486;2023-07-13T03:13:40;16.50;99.90
38458;DHT22;24239;48.058;10.486;2023-07-13T03:16:10;16.60;99.90
38458;DHT22;24239;48.058;10.486;2023-07-13T03:18:39;16.50;99.90
38458;DHT22;24239;48.058;10.486;2023-07-13T03:21:06;16.40;99.90
38458;DHT22;24239;48.058;10.486;2023-07-13T03:23:32;16.40;99.90
38458;DHT22;24239;48.058;10.486;2023-07-13T03:26:18;16.40;99.90
38458;DHT22;24239;48.058;10.486;2023-07-13T03:28:45;16.40;99.90
38458;DHT22;24239;48.058;10.486;2023-07-13T03:31:19;16.40;99.90
38458;DHT22;24239;48.058;10.486;2023-07-13T03:33:47;16.40;99.90
38458;DHT22;24239;48.058;10.486;2023-07-13T03:36:17;16.40;99.90
38458;DHT22;24239;48.058;10.486;2023-07-13T03:38:52;16.40;99.90
38458;DHT22;24239;48.058;10.486;2023-07-13T03:41:19;16.40;99.90
38458;DHT22;24239;48.058;10.486;2023-07-13T03:43:47;16.40;99.90
38458;DHT22;24239;48.058;10.486;2023-07-13T03:46:17;16.50;99.90
38458;DHT22;24239;48.058;10.486;2023-07-13T03:48:47;16.40;99.90
38458;DHT22;24239;48.058;10.486;2023-07-13T03:51:18;16.40;99.90
38458;DHT22;24239;48.058;10.486;2023-07-13T03:53:48;16.40;99.90
38458;DHT22;24239;48.058;10.486;2023-07-13T03:56:17;16.40;99.90
38458;DHT22;24239;48.058;10.486;2023-07-13T03:58:48;16.40;99.90
38458;DHT22;24239;48.058;10.486;2023-07-13T04:01:14;16.40;99.90
38458;DHT22;24239;48.058;10.486;2023-07-13T04:03:43;16.40;99.90
38458;DHT22;24239;48.058;10.486;2023-07-13T04:06:15;16.30;99.90
38458;DHT22;24239;48.058;10.486;2023-07-13T04:08:49;16.40;99.90
38458;DHT22;24239;48.058;10.486;2023-07-13T04:11:19;16.40;99.90
38458;DHT22;24239;48.058;10.486;2023-07-13T04:13:50;16.40;99.90
38458;DHT22;24239;48.058;10.486;2023-07-13T04:16:17;16.40;99.90
38458;DHT22;24239;48.058;10.486;2023-07-13T04:18:44;16.40;99.90
38458;DHT22;24239;48.058;10.486;2023-07-13T04:21:11;16.40;99.90
38458;DHT22;24239;48.058;10.486;2023-07-13T04:23:37;16.40;99.90
38458;DHT22;24239;48.058;10.486;2023-07-13T04:26:04;16.40;99.90
38458;DHT22;24239;48.058;10.486;2023-07-13T04:28:30;16.40;99.90
38458;DHT22;24239;48.058;10.486;2023-07-13T04:30:56;16.40;99.90
38458;DHT22;24239;48.058;10.486;2023-07-13T04:33:22;16.40;99.90
38458;DHT22;24239;48.058;10.486;2023-07-13T04:35:50;16.40;99.90
38458;DHT22;24239;48.058;10.486;2023-07-13T04:38:20;16.50;99.90
38458;DHT22;24239;48.058;10.486;2023-07-13T04:40:47;16.50;99.90
38458;DHT22;24239;48.058;10.486;2023-07-13T04:43:12;16.50;99.90
38458;DHT22;24239;48.058;10.486;2023-07-13T04:45:40;16.50;99.90
38458;DHT22;24239;48.058;10.486;2023-07-13T04:48:06;16.60;99.90
38458;DHT22;24239;48.058;10.486;2023-07-13T04:50:32;16.60;99.90
38458;DHT22;24239;48.058;10.486;2023-07-13T04:52:59;16.50;99.90
38458;DHT22;24239;48.058;10.486;2023-07-13T04:55:25;16.50;99.90
38458;DHT22;24239;48.058;10.486;2023-07-13T04:57:51;16.70;99.90
38458;DHT22;24239;48.058;10.486;2023-07-13T05:00:17;16.70;99.90
38458;DHT22;24239;48.058;10.486;2023-07-13T05:02:45;16.70;99.90
38458;DHT22;24239;48.058;10.486;2023-07-13T05:05:11;16.60;99.90
38458;DHT22;24239;48.058;10.486;2023-07-13T05:07:38;16.60;99.90
38458;DHT22;24239;48.058;10.486;2023-07-13T05:10:05;16.60;99.90
38458;DHT22;24239;48.058;10.486;2023-07-13T05:12:33;16.60;99.90
38458;DHT22;24239;48.058;10.486;2023-07-13T05:15:03;16.50;99.90
38458;DHT22;24239;48.058;10.486;2023-07-13T05:17:30;16.50;99.90
38458;DHT22;24239;48.058;10.486;2023-07-13T05:19:57;16.50;99.90
38458;DHT22;24239;48.058;10.486;2023-07-13T05:22:28;16.50;99.90
38458;DHT22;24239;48.058;10.486;2023-07-13T05:24:55;16.60;99.90
38458;DHT22;24239;48.058;10.486;2023-07-13T05:27:22;16.60;99.90
38458;DHT22;24239;48.058;10.486;2023-07-13T05:29:51;16.50;99.90
38458;DHT22;24239;48.058;10.486;2023-07-13T05:32:20;16.50;99.90
38458;DHT22;24239;48.058;10.486;2023-07-13T05:34:48;16.40;99.90
38458;DHT22;24239;48.058;10.486;2023-07-13T05:37:16;16.20;99.90
38458;DHT22;24239;48.058;10.486;2023-07-13T05:39:45;16.10;99.90
38458;DHT22;24239;48.058;10.486;2023-07-13T05:42:15;15.80;99.90
38458;DHT22;24239;48.058;10.486;2023-07-13T05:44:45;15.70;99.90
38458;DHT22;24239;48.058;10.486;2023-07-13T05:47:15;15.60;99.90
38458;DHT22;24239;48.058;10.486;2023-07-13T05:49:44;15.60;99.90
38458;DHT22;24239;48.058;10.486;2023-07-13T05:52:09;15.60;99.90
38458;DHT22;24239;48.058;10.486;2023-07-13T05:54:36;15.60;99.90
38458;DHT22;24239;48.058;10.486;2023-07-13T05:57:02;15.70;99.90
38458;DHT22;24239;48.058;10.486;2023-07-13T05:59:33;15.80;99.90
38458;DHT22;24239;48.058;10.486;2023-07-13T06:02:00;15.80;99.90
38458;DHT22;24239;48.058;10.486;2023-07-13T06:04:27;15.90;99.90
38458;DHT22;24239;48.058;10.486;2023-07-13T06:06:52;15.90;99.90
38458;DHT22;24239;48.058;10.486;2023-07-13T06:09:18;15.90;99.90
38458;DHT22;24239;48.058;10.486;2023-07-13T06:11:45;16.10;99.90
38458;DHT22;24239;48.058;10.486;2023-07-13T06:14:12;16.00;99.90
38458;DHT22;24239;48.058;10.486;2023-07-13T06:16:41;16.00;99.90
38458;DHT22;24239;48.058;10.486;2023-07-13T06:19:07;16.10;99.90
38458;DHT22;24239;48.058;10.486;2023-07-13T06:21:33;16.10;99.90
38458;DHT22;24239;48.058;10.486;2023-07-13T06:23:58;16.20;99.90
38458;DHT22;24239;48.058;10.486;2023-07-13T06:26:24;16.40;99.90
38458;DHT22;24239;48.058;10.486;2023-07-13T06:28:50;16.50;99.90
38458;DHT22;24239;48.058;10.486;2023-07-13T06:31:16;16.60;99.90
38458;DHT22;24239;48.058;10.486;2023-07-13T06:33:44;16.60;99.90
38458;DHT22;24239;48.058;10.486;2023-07-13T06:36:11;16.80;99.90
38458;DHT22;24239;48.058;10.486;2023-07-13T06:38:37;16.90;99.90
38458;DHT22;24239;48.058;10.486;2023-07-13T06:41:06;17.00;99.90
38458;DHT22;24239;48.058;10.486;2023-07-13T06:43:32;17.10;99.90
38458;DHT22;24239;48.058;10.486;2023-07-13T06:45:58;17.20;99.90
38458;DHT22;24239;48.058;10.486;2023-07-13T06:48:24;17.40;99.90
38458;DHT22;24239;48.058;10.486;2023-07-13T06:50:50;17.60;99.90
38458;DHT22;24239;48.058;10.486;2023-07-13T06:53:17;17.70;99.90
38458;DHT22;24239;48.058;10.486;2023-07-13T06:55:44;17.70;99.90
38458;DHT22;24239;48.058;10.486;2023-07-13T06:58:11;17.90;99.90
38458;DHT22;24239;48.058;10.486;2023-07-13T07:00:38;18.00;99.90
38458;DHT22;24239;48.058;10.486;2023-07-13T07:03:05;18.10;99.90
38458;DHT22;24239;48.058;10.486;2023-07-13T07:05:31;18.20;99.90
38458;DHT22;24239;48.058;10.486;2023-07-13T07:07:58;18.30;99.90
38458;DHT22;24239;48.058;10.486;2023-07-13T07:10:31;18.60;99.90
38458;DHT22;24239;48.058;10.486;2023-07-13T07:13:02;18.60;99.90
38458;DHT22;24239;48.058;10.486;2023-07-13T07:15:31;18.70;99.90
38458;DHT22;24239;48.058;10.486;2023-07-13T07:18:01;18.70;99.90
38458;DHT22;24239;48.058;10.486;2023-07-13T07:20:28;18.70;99.90
38458;DHT22;24239;48.058;10.486;2023-07-13T07:22:56;18.60;99.90
38458;DHT22;24239;48.058;10.486;2023-07-13T07:25:23;18.50;99.90
38458;DHT22;24239;48.058;10.486;2023-07-13T07:27:49;18.50;99.90
38458;DHT22;24239;48.058;10.486;2023-07-13T07:30:19;18.50;99.90
38458;DHT22;24239;48.058;10.486;2023-07-13T07:32:49;18.40;99.90
38458;DHT22;24239;48.058;10.486;2023-07-13T07:35:18;18.40;99.90
38458;DHT22;24239;48.058;10.486;2023-07-13T07:37:44;18.40;99.90
38458;DHT22;24239;48.058;10.486;2023-07-13T07:40:13;18.40;99.90
38458;DHT22;24239;48.058;10.486;2023-07-13T07:42:42;18.50;99.90
38458;DHT22;24239;48.058;10.486;2023-07-13T07:45:10;18.50;99.90
38458;DHT22;24239;48.058;10.486;2023-07-13T07:47:37;18.70;99.90
38458;DHT22;24239;48.058;10.486;2023-07-13T07:50:04;18.70;99.90
38458;DHT22;24239;48.058;10.486;2023-07-13T07:52:30;18.60;99.90
38458;DHT22;24239;48.058;10.486;2023-07-13T07:54:55;18.70;99.90
38458;DHT22;24239;48.058;10.486;2023-07-13T07:57:22;18.80;99.90
38458;DHT22;24239;48.058;10.486;2023-07-13T07:59:49;18.90;99.90
38458;DHT22;24239;48.058;10.486;2023-07-13T08:02:19;19.00;99.90
38458;DHT22;24239;48.058;10.486;2023-07-13T08:04:46;19.10;99.90
38458;DHT22;24239;48.058;10.486;2023-07-13T08:07:11;19.30;99.90
38458;DHT22;24239;48.058;10.486;2023-07-13T08:09:37;19.30;99.90
38458;DHT22;24239;48.058;10.486;2023-07-13T08:12:03;19.50;99.90
38458;DHT22;24239;48.058;10.486;2023-07-13T08:14:32;19.60;99.90
38458;DHT22;24239;48.058;10.486;2023-07-13T08:17:02;19.80;99.90
38458;DHT22;24239;48.058;10.486;2023-07-13T08:19:29;19.60;99.90
38458;DHT22;24239;48.058;10.486;2023-07-13T08:22:00;19.60;99.90
38458;DHT22;24239;48.058;10.486;2023-07-13T08:24:28;19.50;99.90
38458;DHT22;24239;48.058;10.486;2023-07-13T08:26:57;19.70;99.90
38458;DHT22;24239;48.058;10.486;2023-07-13T08:29:26;19.80;99.90
38458;DHT22;24239;48.058;10.486;2023-07-13T08:31:54;19.80;99.90
38458;DHT22;24239;48.058;10.486;2023-07-13T08:34:20;19.70;99.90
38458;DHT22;24239;48.058;10.486;2023-07-13T08:36:46;19.60;99.90
38458;DHT22;24239;48.058;10.486;2023-07-13T08:39:11;19.60;99.90
38458;DHT22;24239;48.058;10.486;2023-07-13T08:41:38;19.70;99.90
38458;DHT22;24239;48.058;10.486;2023-07-13T08:44:07;19.80;99.90
38458;DHT22;24239;48.058;10.486;2023-07-13T08:46:38;19.80;99.90
38458;DHT22;24239;48.058;10.486;2023-07-13T08:49:12;19.80;99.90
38458;DHT22;24239;48.058;10.486;2023-07-13T08:51:53;19.70;99.90
38458;DHT22;24239;48.058;10.486;2023-07-13T08:57:10;20.20;99.90
38458;DHT22;24239;48.058;10.486;2023-07-13T08:59:37;20.40;99.90
38458;DHT22;24239;48.058;10.486;2023-07-13T09:10:45;20.90;99.90
38458;DHT22;24239;48.058;10.486;2023-07-13T09:15:47;20.90;99.90
38458;DHT22;24239;48.058;10.486;2023-07-13T09:18:34;20.80;99.90
38458;DHT22;24239;48.058;10.486;2023-07-13T09:21:09;20.90;99.90
38458;DHT22;24239;48.058;10.486;2023-07-13T09:23:36;20.90;99.90
38458;DHT22;24239;48.058;10.486;2023-07-13T09:26:19;20.80;99.90
38458;DHT22;24239;48.058;10.486;2023-07-13T09:29:03;20.90;99.90
38458;DHT22;24239;48.058;10.486;2023-07-13T09:31:39;20.90;99.90
38458;DHT22;24239;48.058;10.486;2023-07-13T09:34:13;20.80;99.90
38458;DHT22;24239;48.058;10.486;2023-07-13T09:36:41;20.80;99.90
38458;DHT22;24239;48.058;10.486;2023-07-13T09:42:05;20.90;99.90
38458;DHT22;24239;48.058;10.486;2023-07-13T09:44:34;21.00;99.90
38458;DHT22;24239;48.058;10.486;2023-07-13T09:47:02;21.20;99.90
38458;DHT22;24239;48.058;10.486;2023-07-13T09:49:37;21.30;99.90
38458;DHT22;24239;48.058;10.486;2023-07-13T09:52:11;21.30;99.90
38458;DHT22;24239;48.058;10.486;2023-07-13T09:54:43;21.30;99.90
38458;DHT22;24239;48.058;10.486;2023-07-13T09:57:25;21.30;99.90
38458;DHT22;24239;48.058;10.486;2023-07-13T09:59:55;21.20;99.90
38458;DHT22;24239;48.058;10.486;2023-07-13T10:05:11;21.60;99.90
38458;DHT22;24239;48.058;10.486;2023-07-13T10:07:39;21.70;99.90
38458;DHT22;24239;48.058;10.486;2023-07-13T10:10:15;21.80;99.90
38458;DHT22;24239;48.058;10.486;2023-07-13T10:12:43;21.50;99.90
38458;DHT22;24239;48.058;10.486;2023-07-13T10:15:18;21.70;99.90
38458;DHT22;24239;48.058;10.486;2023-07-13T10:17:46;22.00;99.90
38458;DHT22;24239;48.058;10.486;2023-07-13T10:20:12;22.10;99.90
38458;DHT22;24239;48.058;10.486;2023-07-13T10:22:56;22.10;99.90
38458;DHT22;24239;48.058;10.486;2023-07-13T10:25:28;22.00;98.50
38458;DHT22;24239;48.058;10.486;2023-07-13T10:28:16;22.10;99.20
38458;DHT22;24239;48.058;10.486;2023-07-13T10:30:46;22.20;99.30
38458;DHT22;24239;48.058;10.486;2023-07-13T10:33:14;22.20;99.40
38458;DHT22;24239;48.058;10.486;2023-07-13T10:35:43;22.20;99.30
38458;DHT22;24239;48.058;10.486;2023-07-13T10:38:13;22.00;98.90
38458;DHT22;24239;48.058;10.486;2023-07-13T10:41:01;21.80;97.10
38458;DHT22;24239;48.058;10.486;2023-07-13T10:43:43;21.80;98.20
38458;DHT22;24239;48.058;10.486;2023-07-13T10:46:15;21.80;98.60
38458;DHT22;24239;48.058;10.486;2023-07-13T10:48:46;21.80;96.10
38458;DHT22;24239;48.058;10.486;2023-07-13T10:51:14;21.80;95.80
38458;DHT22;24239;48.058;10.486;2023-07-13T10:53:42;21.80;95.30
38458;DHT22;24239;48.058;10.486;2023-07-13T10:56:28;21.70;95.30
38458;DHT22;24239;48.058;10.486;2023-07-13T11:01:46;21.80;95.30
38458;DHT22;24239;48.058;10.486;2023-07-13T11:04:14;22.00;96.20
38458;DHT22;24239;48.058;10.486;2023-07-13T11:06:41;21.90;96.10
38458;DHT22;24239;48.058;10.486;2023-07-13T11:12:01;21.60;94.60
38458;DHT22;24239;48.058;10.486;2023-07-13T11:14:34;21.50;96.00
38458;DHT22;24239;48.058;10.486;2023-07-13T11:19:54;21.00;98.30
38458;DHT22;24239;48.058;10.486;2023-07-13T11:22:25;20.90;99.10
38458;DHT22;24239;48.058;10.486;2023-07-13T11:25:02;20.90;96.70
38458;DHT22;24239;48.058;10.486;2023-07-13T11:27:50;20.80;97.80
38458;DHT22;24239;48.058;10.486;2023-07-13T11:30:39;20.80;97.10
38458;DHT22;24239;48.058;10.486;2023-07-13T11:38:18;21.10;96.70
38458;DHT22;24239;48.058;10.486;2023-07-13T11:40:47;21.40;96.70
38458;DHT22;24239;48.058;10.486;2023-07-13T11:43:16;21.90;95.30
38458;DHT22;24239;48.058;10.486;2023-07-13T11:45:44;22.00;93.60
38458;DHT22;24239;48.058;10.486;2023-07-13T11:48:21;22.10;93.70
38458;DHT22;24239;48.058;10.486;2023-07-13T11:51:01;22.00;92.70
38458;DHT22;24239;48.058;10.486;2023-07-13T11:53:37;21.90;93.10
38458;DHT22;24239;48.058;10.486;2023-07-13T11:56:05;21.90;94.70
38458;DHT22;24239;48.058;10.486;2023-07-13T11:58:32;22.00;94.20
38458;DHT22;24239;48.058;10.486;2023-07-13T12:01:00;22.10;94.00
38458;DHT22;24239;48.058;10.486;2023-07-13T12:03:30;22.20;94.30
38458;DHT22;24239;48.058;10.486;2023-07-13T12:06:35;22.20;93.80
38458;DHT22;24239;48.058;10.486;2023-07-13T12:09:12;22.50;93.80
38458;DHT22;24239;48.058;10.486;2023-07-13T12:11:40;22.60;94.00
38458;DHT22;24239;48.058;10.486;2023-07-13T12:14:17;22.60;94.50
38458;DHT22;24239;48.058;10.486;2023-07-13T12:16:47;22.60;94.30
38458;DHT22;24239;48.058;10.486;2023-07-13T12:19:21;22.80;94.50
38458;DHT22;24239;48.058;10.486;2023-07-13T12:21:50;22.70;94.50
38458;DHT22;24239;48.058;10.486;2023-07-13T12:24:21;22.50;94.70
38458;DHT22;24239;48.058;10.486;2023-07-13T12:27:02;22.20;94.10
38458;DHT22;24239;48.058;10.486;2023-07-13T12:29:33;22.10;94.80
38458;DHT22;24239;48.058;10.486;2023-07-13T12:32:02;21.90;94.40
38458;DHT22;24239;48.058;10.486;2023-07-13T12:34:54;21.80;95.40
38458;DHT22;24239;48.058;10.486;2023-07-13T12:37:22;21.70;95.00
38458;DHT22;24239;48.058;10.486;2023-07-13T12:39:49;21.60;95.50
38458;DHT22;24239;48.058;10.486;2023-07-13T12:42:27;21.60;95.20
38458;DHT22;24239;48.058;10.486;2023-07-13T12:47:47;21.30;95.10
38458;DHT22;24239;48.058;10.486;2023-07-13T12:50:19;21.50;96.80
38458;DHT22;24239;48.058;10.486;2023-07-13T12:52:59;21.50;96.90
38458;DHT22;24239;48.058;10.486;2023-07-13T12:55:28;21.70;97.00
38458;DHT22;24239;48.058;10.486;2023-07-13T12:58:03;21.80;98.50
38458;DHT22;24239;48.058;10.486;2023-07-13T13:00:33;22.00;95.30
38458;DHT22;24239;48.058;10.486;2023-07-13T13:03:55;22.00;95.80
38458;DHT22;24239;48.058;10.486;2023-07-13T13:08:51;22.20;96.50
38458;DHT22;24239;48.058;10.486;2023-07-13T13:11:22;22.30;97.40
38458;DHT22;24239;48.058;10.486;2023-07-13T13:13:52;22.30;96.00
38458;DHT22;24239;48.058;10.486;2023-07-13T13:18:59;22.70;96.70
38458;DHT22;24239;48.058;10.486;2023-07-13T13:21:30;22.70;95.40
38458;DHT22;24239;48.058;10.486;2023-07-13T13:24:00;22.50;95.40
38458;DHT22;24239;48.058;10.486;2023-07-13T13:26:28;22.30;95.50
38458;DHT22;24239;48.058;10.486;2023-07-13T13:28:56;22.20;95.60
38458;DHT22;24239;48.058;10.486;2023-07-13T13:31:24;22.20;95.90
38458;DHT22;24239;48.058;10.486;2023-07-13T13:33:53;22.10;96.50
38458;DHT22;24239;48.058;10.486;2023-07-13T13:36:24;22.30;97.40
38458;DHT22;24239;48.058;10.486;2023-07-13T13:38:53;22.60;97.70
38458;DHT22;24239;48.058;10.486;2023-07-13T13:41:21;22.90;96.20
38458;DHT22;24239;48.058;10.486;2023-07-13T13:43:48;22.80;95.80
38458;DHT22;24239;48.058;10.486;2023-07-13T13:46:26;22.80;96.40
38458;DHT22;24239;48.058;10.486;2023-07-13T13:48:55;22.80;95.70
38458;DHT22;24239;48.058;10.486;2023-07-13T13:51:25;22.70;95.60
38458;DHT22;24239;48.058;10.486;2023-07-13T13:53:54;22.80;96.50
38458;DHT22;24239;48.058;10.486;2023-07-13T13:56:22;22.90;96.50
38458;DHT22;24239;48.058;10.486;2023-07-13T13:58:49;22.90;96.10
38458;DHT22;24239;48.058;10.486;2023-07-13T14:01:23;23.00;95.50
38458;DHT22;24239;48.058;10.486;2023-07-13T14:03:51;23.20;96.00
38458;DHT22;24239;48.058;10.486;2023-07-13T14:06:21;23.20;95.50
38458;DHT22;24239;48.058;10.486;2023-07-13T14:08:49;23.10;95.60
38458;DHT22;24239;48.058;10.486;2023-07-13T14:11:20;23.00;96.50
38458;DHT22;24239;48.058;10.486;2023-07-13T14:13:59;23.10;97.10
38458;DHT22;24239;48.058;10.486;2023-07-13T14:16:30;23.20;96.20
38458;DHT22;24239;48.058;10.486;2023-07-13T14:19:00;23.00;95.30
38458;DHT22;24239;48.058;10.486;2023-07-13T14:21:30;22.90;95.70
38458;DHT22;24239;48.058;10.486;2023-07-13T14:23:57;22.90;96.10
38458;DHT22;24239;48.058;10.486;2023-07-13T14:26:32;23.00;95.50
38458;DHT22;24239;48.058;10.486;2023-07-13T14:29:11;23.20;96.70
38458;DHT22;24239;48.058;10.486;2023-07-13T14:31:46;23.30;95.80
38458;DHT22;24239;48.058;10.486;2023-07-13T14:34:14;23.60;96.70
38458;DHT22;24239;48.058;10.486;2023-07-13T14:36:45;24.00;96.40
38458;DHT22;24239;48.058;10.486;2023-07-13T14:39:20;24.20;95.80
38458;DHT22;24239;48.058;10.486;2023-07-13T14:41:54;24.50;95.40
38458;DHT22;24239;48.058;10.486;2023-07-13T14:44:28;24.20;94.00
38458;DHT22;24239;48.058;10.486;2023-07-13T14:47:01;24.20;96.00
38458;DHT22;24239;48.058;10.486;2023-07-13T14:49:42;24.20;94.90
38458;DHT22;24239;48.058;10.486;2023-07-13T14:52:13;24.20;95.10
38458;DHT22;24239;48.058;10.486;2023-07-13T14:54:42;24.10;94.20
38458;DHT22;24239;48.058;10.486;2023-07-13T14:57:14;24.00;94.10
38458;DHT22;24239;48.058;10.486;2023-07-13T14:59:46;24.00;94.50
38458;DHT22;24239;48.058;10.486;2023-07-13T15:02:24;24.20;94.50
38458;DHT22;24239;48.058;10.486;2023-07-13T15:04:54;24.30;94.60
38458;DHT22;24239;48.058;10.486;2023-07-13T15:07:20;24.40;95.20
38458;DHT22;24239;48.058;10.486;2023-07-13T15:09:47;24.40;94.70
38458;DHT22;24239;48.058;10.486;2023-07-13T15:12:16;24.40;94.70
38458;DHT22;24239;48.058;10.486;2023-07-13T15:14:42;24.60;95.90
38458;DHT22;24239;48.058;10.486;2023-07-13T15:17:30;24.90;94.70
38458;DHT22;24239;48.058;10.486;2023-07-13T15:19:57;25.00;94.30
38458;DHT22;24239;48.058;10.486;2023-07-13T15:22:24;25.20;94.60
38458;DHT22;24239;48.058;10.486;2023-07-13T15:24:50;25.40;94.10
38458;DHT22;24239;48.058;10.486;2023-07-13T15:27:17;25.50;93.90
38458;DHT22;24239;48.058;10.486;2023-07-13T15:29:44;25.60;93.10
38458;DHT22;24239;48.058;10.486;2023-07-13T15:32:13;25.40;92.90
38458;DHT22;24239;48.058;10.486;2023-07-13T15:34:40;25.30;93.80
38458;DHT22;24239;48.058;10.486;2023-07-13T15:37:16;25.40;92.60
38458;DHT22;24239;48.058;10.486;2023-07-13T15:39:43;25.50;93.00
38458;DHT22;24239;48.058;10.486;2023-07-13T15:42:22;25.80;93.60
38458;DHT22;24239;48.058;10.486;2023-07-13T15:44:48;25.70;92.20
38458;DHT22;24239;48.058;10.486;2023-07-13T15:47:15;25.40;92.60
38458;DHT22;24239;48.058;10.486;2023-07-13T15:49:42;25.30;93.50
38458;DHT22;24239;48.058;10.486;2023-07-13T15:52:18;25.10;92.60
38458;DHT22;24239;48.058;10.486;2023-07-13T15:54:46;25.00;92.60
38458;DHT22;24239;48.058;10.486;2023-07-13T15:57:14;24.70;93.00
38458;DHT22;24239;48.058;10.486;2023-07-13T15:59:41;24.40;93.40
38458;DHT22;24239;48.058;10.486;2023-07-13T16:02:20;24.10;93.90
38458;DHT22;24239;48.058;10.486;2023-07-13T16:04:48;23.90;93.90
38458;DHT22;24239;48.058;10.486;2023-07-13T16:07:15;23.70;94.20
38458;DHT22;24239;48.058;10.486;2023-07-13T16:09:45;23.50;94.30
38458;DHT22;24239;48.058;10.486;2023-07-13T16:12:13;23.40;94.70
38458;DHT22;24239;48.058;10.486;2023-07-13T16:14:40;23.20;95.40